sensor_id;sensor_type;location;lat;lon;timestamp;P1;durP1;ratioP1;P2;durP2;ratioP2
36923;SDS011;22841;50.252;18.688;2023-03-01T00:01:20;245.60;;;94.43;;
36923;SDS011;22841;50.252;18.688;2023-03-01T00:03:47;241.40;;;98.65;;
36923;SDS011;22841;50.252;18.688;2023-03-01T00:06:14;249.68;;;99.05;;
36923;SDS011;22841;50.252;18.688;2023-03-01T00:08:41;267.88;;;103.57;;
36923;SDS011;22841;50.252;18.688;2023-03-01T00:13:40;252.57;;;100.50;;
36923;SDS011;22841;50.252;18.688;2023-03-01T00:16:08;251.90;;;99.20;;
36923;SDS011;22841;50.252;18.688;2023-03-01T00:18:39;256.77;;;97.20;;
36923;SDS011;22841;50.252;18.688;2023-03-01T00:21:05;265.98;;;101.15;;
36923;SDS011;22841;50.252;18.688;2023-03-01T00:23:33;276.20;;;104.50;;
36923;SDS011;22841;50.252;18.688;2023-03-01T00:26:00;262.20;;;103.30;;
36923;SDS011;22841;50.252;18.688;2023-03-01T00:28:27;259.92;;;103.03;;
36923;SDS011;22841;50.252;18.688;2023-03-01T00:30:53;244.88;;;94.18;;
36923;SDS011;22841;50.252;18.688;2023-03-01T00:33:19;285.83;;;104.85;;
36923;SDS011;22841;50.252;18.688;2023-03-01T00:35:45;284.23;;;105.97;;
36923;SDS011;22841;50.252;18.688;2023-03-01T00:38:11;308.98;;;105.00;;
36923;SDS011;22841;50.252;18.688;2023-03-01T00:40:37;302.10;;;109.75;;
36923;SDS011;22841;50.252;18.688;2023-03-01T00:43:03;287.23;;;105.97;;
36923;SDS011;22841;50.252;18.688;2023-03-01T00:45:30;288.00;;;105.97;;
36923;SDS011;22841;50.252;18.688;2023-03-01T00:47:59;251.25;;;92.85;;
36923;SDS011;22841;50.252;18.688;2023-03-01T00:50:25;254.98;;;96.68;;
36923;SDS011;22841;50.252;18.688;2023-03-01T00:52:54;276.70;;;100.10;;
36923;SDS011;22841;50.252;18.688;2023-03-01T00:55:21;251.73;;;94.38;;
36923;SDS011;22841;50.252;18.688;2023-03-01T00:57:48;260.23;;;94.75;;
36923;SDS011;22841;50.252;18.688;2023-03-01T01:00:14;248.50;;;97.32;;
36923;SDS011;22841;50.252;18.688;2023-03-01T01:02:40;282.05;;;100.40;;
36923;SDS011;22841;50.252;18.688;2023-03-01T01:05:07;261.13;;;100.38;;
36923;SDS011;22841;50.252;18.688;2023-03-01T01:07:33;266.13;;;106.43;;
36923;SDS011;22841;50.252;18.688;2023-03-01T01:09:59;272.77;;;105.30;;
36923;SDS011;22841;50.252;18.688;2023-03-01T01:12:25;286.42;;;102.05;;
36923;SDS011;22841;50.252;18.688;2023-03-01T01:30:27;244.07;;;93.75;;
36923;SDS011;22841;50.252;18.688;2023-03-01T01:32:53;252.43;;;95.82;;
36923;SDS011;22841;50.252;18.688;2023-03-01T01:35:19;261.95;;;98.22;;
36923;SDS011;22841;50.252;18.688;2023-03-01T01:37:45;251.98;;;96.88;;
36923;SDS011;22841;50.252;18.688;2023-03-01T02:03:35;260.00;;;100.35;;
36923;SDS011;22841;50.252;18.688;2023-03-01T02:06:17;275.05;;;101.13;;
36923;SDS011;22841;50.252;18.688;2023-03-01T03:20:42;247.90;;;92.82;;
36923;SDS011;22841;50.252;18.688;2023-03-01T03:23:09;234.77;;;92.57;;
36923;SDS011;22841;50.252;18.688;2023-03-01T03:25:36;240.52;;;93.22;;
36923;SDS011;22841;50.252;18.688;2023-03-01T03:28:03;237.02;;;89.47;;
36923;SDS011;22841;50.252;18.688;2023-03-01T03:30:36;240.60;;;93.75;;
36923;SDS011;22841;50.252;18.688;2023-03-01T03:33:07;236.23;;;89.82;;
36923;SDS011;22841;50.252;18.688;2023-03-01T03:35:42;233.50;;;92.50;;
36923;SDS011;22841;50.252;18.688;2023-03-01T03:38:10;233.70;;;89.32;;
36923;SDS011;22841;50.252;18.688;2023-03-01T03:41:02;232.20;;;91.03;;
36923;SDS011;22841;50.252;18.688;2023-03-01T03:43:29;228.05;;;87.88;;
36923;SDS011;22841;50.252;18.688;2023-03-01T03:45:56;232.98;;;87.80;;
36923;SDS011;22841;50.252;18.688;2023-03-01T03:48:23;210.77;;;87.13;;
36923;SDS011;22841;50.252;18.688;2023-03-01T03:50:50;225.70;;;86.00;;
36923;SDS011;22841;50.252;18.688;2023-03-01T03:53:17;214.73;;;90.28;;
36923;SDS011;22841;50.252;18.688;2023-03-01T03:55:44;233.77;;;88.07;;
36923;SDS011;22841;50.252;18.688;2023-03-01T03:58:14;219.98;;;87.68;;
36923;SDS011;22841;50.252;18.688;2023-03-01T04:00:43;233.57;;;85.95;;
36923;SDS011;22841;50.252;18.688;2023-03-01T04:03:10;216.30;;;83.30;;
36923;SDS011;22841;50.252;18.688;2023-03-01T04:05:38;235.07;;;85.90;;
36923;SDS011;22841;50.252;18.688;2023-03-01T04:08:05;217.18;;;85.28;;
36923;SDS011;22841;50.252;18.688;2023-03-01T04:10:45;220.75;;;82.55;;
36923;SDS011;22841;50.252;18.688;2023-03-01T04:13:17;198.20;;;79.95;;
36923;SDS011;22841;50.252;18.688;2023-03-01T04:15:46;219.10;;;87.65;;
36923;SDS011;22841;50.252;18.688;2023-03-01T04:18:14;208.43;;;83.78;;
36923;SDS011;22841;50.252;18.688;2023-03-01T04:20:42;227.13;;;83.88;;
36923;SDS011;22841;50.252;18.688;2023-03-01T04:23:13;218.80;;;84.03;;
36923;SDS011;22841;50.252;18.688;2023-03-01T04:25:54;215.07;;;84.43;;
36923;SDS011;22841;50.252;18.688;2023-03-01T04:28:23;214.50;;;83.63;;
36923;SDS011;22841;50.252;18.688;2023-03-01T04:30:51;226.95;;;86.50;;
36923;SDS011;22841;50.252;18.688;2023-03-01T04:33:18;236.00;;;83.43;;
36923;SDS011;22841;50.252;18.688;2023-03-01T04:35:45;229.93;;;84.25;;
36923;SDS011;22841;50.252;18.688;2023-03-01T04:38:11;197.73;;;80.80;;
36923;SDS011;22841;50.252;18.688;2023-03-01T04:40:37;207.02;;;80.68;;
36923;SDS011;22841;50.252;18.688;2023-03-01T04:43:03;197.70;;;80.03;;
36923;SDS011;22841;50.252;18.688;2023-03-01T04:45:31;255.30;;;92.75;;
36923;SDS011;22841;50.252;18.688;2023-03-01T04:47:57;322.42;;;110.88;;
36923;SDS011;22841;50.252;18.688;2023-03-01T04:50:23;281.92;;;102.85;;
36923;SDS011;22841;50.252;18.688;2023-03-01T04:52:51;340.52;;;113.57;;
36923;SDS011;22841;50.252;18.688;2023-03-01T04:55:17;473.95;;;148.00;;
36923;SDS011;22841;50.252;18.688;2023-03-01T04:57:44;510.33;;;173.43;;
36923;SDS011;22841;50.252;18.688;2023-03-01T05:00:12;504.48;;;170.63;;
36923;SDS011;22841;50.252;18.688;2023-03-01T05:02:55;480.95;;;154.75;;
36923;SDS011;22841;50.252;18.688;2023-03-01T05:05:27;438.00;;;139.13;;
36923;SDS011;22841;50.252;18.688;2023-03-01T05:07:57;520.67;;;177.20;;
36923;SDS011;22841;50.252;18.688;2023-03-01T05:10:25;446.90;;;143.73;;
36923;SDS011;22841;50.252;18.688;2023-03-01T05:12:54;384.25;;;126.40;;
36923;SDS011;22841;50.252;18.688;2023-03-01T05:15:23;411.10;;;132.07;;
36923;SDS011;22841;50.252;18.688;2023-03-01T05:17:53;411.63;;;139.77;;
36923;SDS011;22841;50.252;18.688;2023-03-01T05:20:21;403.05;;;134.70;;
36923;SDS011;22841;50.252;18.688;2023-03-01T05:22:56;449.85;;;146.30;;
36923;SDS011;22841;50.252;18.688;2023-03-01T05:25:31;417.13;;;134.82;;
36923;SDS011;22841;50.252;18.688;2023-03-01T05:27:59;396.58;;;131.43;;
36923;SDS011;22841;50.252;18.688;2023-03-01T05:30:33;365.83;;;118.35;;
36923;SDS011;22841;50.252;18.688;2023-03-01T05:33:00;250.10;;;91.43;;
36923;SDS011;22841;50.252;18.688;2023-03-01T05:35:26;213.73;;;82.90;;
36923;SDS011;22841;50.252;18.688;2023-03-01T05:37:52;235.20;;;90.13;;
36923;SDS011;22841;50.252;18.688;2023-03-01T05:40:19;258.25;;;91.20;;
36923;SDS011;22841;50.252;18.688;2023-03-01T05:42:48;259.25;;;92.82;;
36923;SDS011;22841;50.252;18.688;2023-03-01T05:45:19;266.38;;;95.18;;
36923;SDS011;22841;50.252;18.688;2023-03-01T05:47:47;260.85;;;95.30;;
36923;SDS011;22841;50.252;18.688;2023-03-01T05:50:18;254.73;;;93.82;;
36923;SDS011;22841;50.252;18.688;2023-03-01T05:52:47;260.73;;;94.53;;
36923;SDS011;22841;50.252;18.688;2023-03-01T05:55:18;252.73;;;94.68;;
36923;SDS011;22841;50.252;18.688;2023-03-01T05:57:45;232.18;;;87.25;;
36923;SDS011;22841;50.252;18.688;2023-03-01T06:00:12;230.40;;;88.72;;
36923;SDS011;22841;50.252;18.688;2023-03-01T06:02:39;221.93;;;88.53;;
36923;SDS011;22841;50.252;18.688;2023-03-01T06:05:06;228.25;;;86.07;;
36923;SDS011;22841;50.252;18.688;2023-03-01T06:07:34;235.38;;;87.30;;
36923;SDS011;22841;50.252;18.688;2023-03-01T06:10:01;399.40;;;135.82;;
36923;SDS011;22841;50.252;18.688;2023-03-01T06:12:31;383.98;;;135.65;;
36923;SDS011;22841;50.252;18.688;2023-03-01T06:15:02;533.88;;;191.40;;
36923;SDS011;22841;50.252;18.688;2023-03-01T06:17:30;500.63;;;187.13;;
36923;SDS011;22841;50.252;18.688;2023-03-01T06:19:58;511.52;;;195.07;;
36923;SDS011;22841;50.252;18.688;2023-03-01T06:22:24;383.75;;;139.00;;
36923;SDS011;22841;50.252;18.688;2023-03-01T06:24:50;366.15;;;129.18;;
36923;SDS011;22841;50.252;18.688;2023-03-01T06:27:16;360.70;;;126.15;;
36923;SDS011;22841;50.252;18.688;2023-03-01T06:29:42;332.42;;;120.47;;
36923;SDS011;22841;50.252;18.688;2023-03-01T06:32:08;336.60;;;121.78;;
36923;SDS011;22841;50.252;18.688;2023-03-01T06:34:34;343.33;;;121.68;;
36923;SDS011;22841;50.252;18.688;2023-03-01T06:37:00;361.40;;;130.70;;
36923;SDS011;22841;50.252;18.688;2023-03-01T06:39:31;363.92;;;129.02;;
36923;SDS011;22841;50.252;18.688;2023-03-01T06:41:57;276.60;;;107.82;;
36923;SDS011;22841;50.252;18.688;2023-03-01T06:44:23;268.33;;;101.05;;
36923;SDS011;22841;50.252;18.688;2023-03-01T06:46:49;271.45;;;101.32;;
36923;SDS011;22841;50.252;18.688;2023-03-01T06:49:15;237.88;;;97.05;;
36923;SDS011;22841;50.252;18.688;2023-03-01T06:51:43;239.80;;;93.57;;
36923;SDS011;22841;50.252;18.688;2023-03-01T06:54:10;240.43;;;94.22;;
36923;SDS011;22841;50.252;18.688;2023-03-01T06:56:36;247.50;;;90.43;;
36923;SDS011;22841;50.252;18.688;2023-03-01T06:59:02;234.25;;;91.50;;
36923;SDS011;22841;50.252;18.688;2023-03-01T07:01:29;226.75;;;88.88;;
36923;SDS011;22841;50.252;18.688;2023-03-01T07:03:56;223.38;;;89.88;;
36923;SDS011;22841;50.252;18.688;2023-03-01T07:47:58;177.55;;;71.00;;
36923;SDS011;22841;50.252;18.688;2023-03-01T07:50:24;158.38;;;66.40;;
36923;SDS011;22841;50.252;18.688;2023-03-01T07:52:51;151.93;;;58.83;;
36923;SDS011;22841;50.252;18.688;2023-03-01T07:58:25;128.75;;;52.22;;
36923;SDS011;22841;50.252;18.688;2023-03-01T08:00:51;132.55;;;53.53;;
36923;SDS011;22841;50.252;18.688;2023-03-01T08:06:54;118.40;;;49.75;;
36923;SDS011;22841;50.252;18.688;2023-03-01T08:15:32;119.28;;;48.08;;
36923;SDS011;22841;50.252;18.688;2023-03-01T08:17:58;116.40;;;50.72;;
36923;SDS011;22841;50.252;18.688;2023-03-01T08:23:44;129.80;;;53.17;;
36923;SDS011;22841;50.252;18.688;2023-03-01T08:26:15;113.10;;;48.28;;
36923;SDS011;22841;50.252;18.688;2023-03-01T08:28:44;128.60;;;53.58;;
36923;SDS011;22841;50.252;18.688;2023-03-01T08:31:24;123.00;;;53.20;;
36923;SDS011;22841;50.252;18.688;2023-03-01T08:43:31;123.63;;;50.92;;
36923;SDS011;22841;50.252;18.688;2023-03-01T08:45:58;114.23;;;46.17;;
36923;SDS011;22841;50.252;18.688;2023-03-01T09:05:36;84.07;;;35.10;;
36923;SDS011;22841;50.252;18.688;2023-03-01T09:40:56;93.63;;;37.55;;
36923;SDS011;22841;50.252;18.688;2023-03-01T09:43:35;85.63;;;38.08;;
36923;SDS011;22841;50.252;18.688;2023-03-01T09:46:11;94.82;;;41.40;;
36923;SDS011;22841;50.252;18.688;2023-03-01T09:48:52;108.30;;;44.72;;
36923;SDS011;22841;50.252;18.688;2023-03-01T10:11:50;96.57;;;40.90;;
36923;SDS011;22841;50.252;18.688;2023-03-01T10:17:17;83.65;;;38.15;;
36923;SDS011;22841;50.252;18.688;2023-03-01T10:22:49;91.60;;;43.08;;
36923;SDS011;22841;50.252;18.688;2023-03-01T10:25:23;87.93;;;41.28;;
36923;SDS011;22841;50.252;18.688;2023-03-01T10:28:03;88.75;;;40.22;;
36923;SDS011;22841;50.252;18.688;2023-03-01T10:30:36;85.03;;;40.08;;
36923;SDS011;22841;50.252;18.688;2023-03-01T10:36:05;82.10;;;36.00;;
36923;SDS011;22841;50.252;18.688;2023-03-01T10:38:31;83.30;;;37.80;;
36923;SDS011;22841;50.252;18.688;2023-03-01T10:41:21;87.55;;;40.00;;
36923;SDS011;22841;50.252;18.688;2023-03-01T10:43:57;96.10;;;41.35;;
36923;SDS011;22841;50.252;18.688;2023-03-01T10:46:35;88.22;;;41.03;;
36923;SDS011;22841;50.252;18.688;2023-03-01T10:49:19;81.82;;;38.10;;
36923;SDS011;22841;50.252;18.688;2023-03-01T10:51:48;84.05;;;36.97;;
36923;SDS011;22841;50.252;18.688;2023-03-01T10:54:17;82.03;;;35.47;;
36923;SDS011;22841;50.252;18.688;2023-03-01T11:23:06;56.38;;;28.30;;
36923;SDS011;22841;50.252;18.688;2023-03-01T11:26:04;64.07;;;29.05;;
36923;SDS011;22841;50.252;18.688;2023-03-01T11:29:00;60.50;;;28.17;;
36923;SDS011;22841;50.252;18.688;2023-03-01T11:31:56;63.15;;;27.65;;
36923;SDS011;22841;50.252;18.688;2023-03-01T11:38:08;68.40;;;31.75;;
36923;SDS011;22841;50.252;18.688;2023-03-01T11:44:25;62.88;;;29.33;;
36923;SDS011;22841;50.252;18.688;2023-03-01T11:50:18;62.35;;;26.88;;
36923;SDS011;22841;50.252;18.688;2023-03-01T11:56:24;52.78;;;27.42;;
36923;SDS011;22841;50.252;18.688;2023-03-01T12:15:38;48.20;;;22.27;;
36923;SDS011;22841;50.252;18.688;2023-03-01T12:22:31;61.25;;;24.38;;
36923;SDS011;22841;50.252;18.688;2023-03-01T12:25:10;57.30;;;24.05;;
36923;SDS011;22841;50.252;18.688;2023-03-01T12:27:50;54.72;;;26.30;;
36923;SDS011;22841;50.252;18.688;2023-03-01T12:33:19;46.35;;;21.73;;
36923;SDS011;22841;50.252;18.688;2023-03-01T12:35:51;49.08;;;24.02;;
36923;SDS011;22841;50.252;18.688;2023-03-01T12:38:50;44.58;;;21.20;;
36923;SDS011;22841;50.252;18.688;2023-03-01T12:41:34;54.67;;;24.85;;
36923;SDS011;22841;50.252;18.688;2023-03-01T12:49:37;49.80;;;23.73;;
36923;SDS011;22841;50.252;18.688;2023-03-01T12:54:40;57.30;;;23.98;;
36923;SDS011;22841;50.252;18.688;2023-03-01T12:57:18;49.38;;;21.83;;
36923;SDS011;22841;50.252;18.688;2023-03-01T13:02:57;51.80;;;21.63;;
36923;SDS011;22841;50.252;18.688;2023-03-01T13:11:25;48.17;;;22.80;;
36923;SDS011;22841;50.252;18.688;2023-03-01T13:13:52;44.00;;;21.85;;
36923;SDS011;22841;50.252;18.688;2023-03-01T13:16:52;47.83;;;19.48;;
36923;SDS011;22841;50.252;18.688;2023-03-01T13:19:19;43.53;;;20.08;;
36923;SDS011;22841;50.252;18.688;2023-03-01T13:21:47;44.08;;;23.52;;
36923;SDS011;22841;50.252;18.688;2023-03-01T13:32:24;45.72;;;21.73;;
36923;SDS011;22841;50.252;18.688;2023-03-01T13:34:51;44.15;;;22.10;;
36923;SDS011;22841;50.252;18.688;2023-03-01T13:37:20;49.90;;;25.92;;
36923;SDS011;22841;50.252;18.688;2023-03-01T13:39:55;42.42;;;21.33;;
36923;SDS011;22841;50.252;18.688;2023-03-01T13:42:30;42.30;;;18.80;;
36923;SDS011;22841;50.252;18.688;2023-03-01T13:45:04;39.55;;;20.35;;
36923;SDS011;22841;50.252;18.688;2023-03-01T13:47:42;44.38;;;20.02;;
36923;SDS011;22841;50.252;18.688;2023-03-01T13:50:16;35.47;;;19.15;;
36923;SDS011;22841;50.252;18.688;2023-03-01T13:52:49;36.10;;;19.38;;
36923;SDS011;22841;50.252;18.688;2023-03-01T13:58:16;48.60;;;20.02;;
36923;SDS011;22841;50.252;18.688;2023-03-01T14:00:45;45.67;;;21.20;;
36923;SDS011;22841;50.252;18.688;2023-03-01T14:05:57;42.33;;;19.83;;
36923;SDS011;22841;50.252;18.688;2023-03-01T14:10:54;46.55;;;22.17;;
36923;SDS011;22841;50.252;18.688;2023-03-01T14:13:29;46.90;;;22.17;;
36923;SDS011;22841;50.252;18.688;2023-03-01T14:16:34;41.38;;;19.80;;
36923;SDS011;22841;50.252;18.688;2023-03-01T14:19:27;40.70;;;19.13;;
36923;SDS011;22841;50.252;18.688;2023-03-01T14:22:38;40.95;;;19.58;;
36923;SDS011;22841;50.252;18.688;2023-03-01T14:24:58;41.88;;;19.17;;
36923;SDS011;22841;50.252;18.688;2023-03-01T14:27:27;47.35;;;21.88;;
36923;SDS011;22841;50.252;18.688;2023-03-01T14:29:58;64.60;;;27.67;;
36923;SDS011;22841;50.252;18.688;2023-03-01T14:32:28;74.57;;;31.33;;
36923;SDS011;22841;50.252;18.688;2023-03-01T14:34:55;114.88;;;45.90;;
36923;SDS011;22841;50.252;18.688;2023-03-01T14:37:30;97.60;;;38.83;;
36923;SDS011;22841;50.252;18.688;2023-03-01T14:40:00;98.53;;;40.25;;
36923;SDS011;22841;50.252;18.688;2023-03-01T14:42:31;104.20;;;49.70;;
36923;SDS011;22841;50.252;18.688;2023-03-01T14:45:01;133.73;;;52.65;;
36923;SDS011;22841;50.252;18.688;2023-03-01T14:50:05;51.65;;;22.40;;
36923;SDS011;22841;50.252;18.688;2023-03-01T14:52:36;42.95;;;21.20;;
36923;SDS011;22841;50.252;18.688;2023-03-01T14:55:05;59.10;;;26.25;;
36923;SDS011;22841;50.252;18.688;2023-03-01T14:57:43;60.53;;;27.15;;
36923;SDS011;22841;50.252;18.688;2023-03-01T15:00:13;44.45;;;22.58;;
36923;SDS011;22841;50.252;18.688;2023-03-01T15:02:53;37.35;;;18.63;;
36923;SDS011;22841;50.252;18.688;2023-03-01T15:05:30;40.10;;;17.40;;
36923;SDS011;22841;50.252;18.688;2023-03-01T15:07:58;47.20;;;19.38;;
36923;SDS011;22841;50.252;18.688;2023-03-01T15:10:27;30.52;;;15.35;;
36923;SDS011;22841;50.252;18.688;2023-03-01T15:12:55;37.05;;;15.63;;
36923;SDS011;22841;50.252;18.688;2023-03-01T15:15:35;33.75;;;14.18;;
36923;SDS011;22841;50.252;18.688;2023-03-01T15:18:46;33.40;;;15.52;;
36923;SDS011;22841;50.252;18.688;2023-03-01T15:20:53;39.10;;;16.73;;
36923;SDS011;22841;50.252;18.688;2023-03-01T15:23:27;29.23;;;15.20;;
36923;SDS011;22841;50.252;18.688;2023-03-01T15:25:55;45.22;;;18.10;;
36923;SDS011;22841;50.252;18.688;2023-03-01T15:28:27;36.63;;;16.45;;
36923;SDS011;22841;50.252;18.688;2023-03-01T15:30:57;42.58;;;16.05;;
36923;SDS011;22841;50.252;18.688;2023-03-01T15:33:31;33.70;;;15.68;;
36923;SDS011;22841;50.252;18.688;2023-03-01T15:36:01;41.78;;;15.57;;
36923;SDS011;22841;50.252;18.688;2023-03-01T15:38:34;38.13;;;15.95;;
36923;SDS011;22841;50.252;18.688;2023-03-01T15:41:24;55.13;;;19.48;;
36923;SDS011;22841;50.252;18.688;2023-03-01T15:44:03;69.35;;;22.55;;
36923;SDS011;22841;50.252;18.688;2023-03-01T15:46:44;66.05;;;23.15;;
36923;SDS011;22841;50.252;18.688;2023-03-01T15:49:23;59.30;;;21.67;;
36923;SDS011;22841;50.252;18.688;2023-03-01T15:51:56;64.32;;;22.38;;
36923;SDS011;22841;50.252;18.688;2023-03-01T15:54:24;84.53;;;26.52;;
36923;SDS011;22841;50.252;18.688;2023-03-01T15:56:51;58.88;;;23.98;;
36923;SDS011;22841;50.252;18.688;2023-03-01T15:59:18;59.45;;;21.95;;
36923;SDS011;22841;50.252;18.688;2023-03-01T16:01:45;72.57;;;25.40;;
36923;SDS011;22841;50.252;18.688;2023-03-01T16:04:14;84.63;;;27.98;;
36923;SDS011;22841;50.252;18.688;2023-03-01T16:06:51;81.40;;;28.15;;
36923;SDS011;22841;50.252;18.688;2023-03-01T16:09:24;82.68;;;26.63;;
36923;SDS011;22841;50.252;18.688;2023-03-01T16:11:51;90.70;;;28.40;;
36923;SDS011;22841;50.252;18.688;2023-03-01T16:14:18;77.97;;;27.08;;
36923;SDS011;22841;50.252;18.688;2023-03-01T16:16:45;139.48;;;48.13;;
36923;SDS011;22841;50.252;18.688;2023-03-01T16:19:13;276.35;;;86.38;;
36923;SDS011;22841;50.252;18.688;2023-03-01T16:21:40;128.48;;;45.03;;
36923;SDS011;22841;50.252;18.688;2023-03-01T16:24:08;143.60;;;48.10;;
36923;SDS011;22841;50.252;18.688;2023-03-01T16:26:36;176.48;;;58.20;;
36923;SDS011;22841;50.252;18.688;2023-03-01T16:29:03;144.52;;;46.78;;
36923;SDS011;22841;50.252;18.688;2023-03-01T16:31:30;145.02;;;55.25;;
36923;SDS011;22841;50.252;18.688;2023-03-01T16:33:56;135.93;;;52.17;;
36923;SDS011;22841;50.252;18.688;2023-03-01T16:36:24;113.22;;;43.17;;
36923;SDS011;22841;50.252;18.688;2023-03-01T16:38:53;114.55;;;41.65;;
36923;SDS011;22841;50.252;18.688;2023-03-01T16:41:21;105.88;;;39.20;;
36923;SDS011;22841;50.252;18.688;2023-03-01T16:43:48;119.78;;;40.33;;
36923;SDS011;22841;50.252;18.688;2023-03-01T16:46:17;104.47;;;35.85;;
36923;SDS011;22841;50.252;18.688;2023-03-01T16:48:47;81.20;;;33.80;;
36923;SDS011;22841;50.252;18.688;2023-03-01T16:51:14;106.38;;;39.17;;
36923;SDS011;22841;50.252;18.688;2023-03-01T16:53:40;148.52;;;50.00;;
36923;SDS011;22841;50.252;18.688;2023-03-01T16:56:07;197.45;;;69.15;;
36923;SDS011;22841;50.252;18.688;2023-03-01T16:58:35;157.40;;;55.70;;
36923;SDS011;22841;50.252;18.688;2023-03-01T17:01:10;132.80;;;48.47;;
36923;SDS011;22841;50.252;18.688;2023-03-01T17:03:41;150.50;;;54.70;;
36923;SDS011;22841;50.252;18.688;2023-03-01T17:06:09;150.13;;;52.13;;
36923;SDS011;22841;50.252;18.688;2023-03-01T17:08:37;168.07;;;59.25;;
36923;SDS011;22841;50.252;18.688;2023-03-01T17:11:04;203.43;;;61.65;;
36923;SDS011;22841;50.252;18.688;2023-03-01T17:13:36;201.43;;;66.32;;
36923;SDS011;22841;50.252;18.688;2023-03-01T17:16:06;206.10;;;68.68;;
36923;SDS011;22841;50.252;18.688;2023-03-01T17:18:33;277.40;;;93.27;;
36923;SDS011;22841;50.252;18.688;2023-03-01T17:23:45;306.23;;;108.38;;
36923;SDS011;22841;50.252;18.688;2023-03-01T17:26:12;294.15;;;101.72;;
36923;SDS011;22841;50.252;18.688;2023-03-01T17:31:59;219.38;;;76.13;;
36923;SDS011;22841;50.252;18.688;2023-03-01T17:34:26;209.43;;;71.97;;
36923;SDS011;22841;50.252;18.688;2023-03-01T17:37:02;257.92;;;83.80;;
36923;SDS011;22841;50.252;18.688;2023-03-01T17:39:28;304.95;;;97.00;;
36923;SDS011;22841;50.252;18.688;2023-03-01T17:42:00;328.83;;;106.97;;
36923;SDS011;22841;50.252;18.688;2023-03-01T17:44:29;367.05;;;118.50;;
36923;SDS011;22841;50.252;18.688;2023-03-01T17:49:28;295.05;;;98.88;;
36923;SDS011;22841;50.252;18.688;2023-03-01T17:51:54;300.23;;;95.78;;
36923;SDS011;22841;50.252;18.688;2023-03-01T17:57:47;219.10;;;79.95;;
36923;SDS011;22841;50.252;18.688;2023-03-01T18:00:14;208.60;;;77.15;;
36923;SDS011;22841;50.252;18.688;2023-03-01T18:02:41;201.57;;;78.55;;
36923;SDS011;22841;50.252;18.688;2023-03-01T18:05:08;173.68;;;72.28;;
36923;SDS011;22841;50.252;18.688;2023-03-01T18:10:27;155.90;;;64.15;;
36923;SDS011;22841;50.252;18.688;2023-03-01T18:12:54;157.25;;;61.28;;
36923;SDS011;22841;50.252;18.688;2023-03-01T18:15:20;148.95;;;58.20;;
36923;SDS011;22841;50.252;18.688;2023-03-01T18:21:14;118.65;;;52.25;;
36923;SDS011;22841;50.252;18.688;2023-03-01T18:48:57;153.48;;;58.80;;
36923;SDS011;22841;50.252;18.688;2023-03-01T18:58:00;132.18;;;56.40;;
36923;SDS011;22841;50.252;18.688;2023-03-01T20:49:56;261.40;;;93.70;;
36923;SDS011;22841;50.252;18.688;2023-03-01T21:02:40;254.02;;;96.50;;
36923;SDS011;22841;50.252;18.688;2023-03-01T21:15:11;256.40;;;89.30;;
36923;SDS011;22841;50.252;18.688;2023-03-01T21:21:17;244.90;;;89.43;;
36923;SDS011;22841;50.252;18.688;2023-03-01T21:23:46;266.50;;;91.30;;
36923;SDS011;22841;50.252;18.688;2023-03-01T21:28:40;270.05;;;93.05;;
36923;SDS011;22841;50.252;18.688;2023-03-01T21:31:09;265.13;;;93.53;;
36923;SDS011;22841;50.252;18.688;2023-03-01T21:33:37;245.27;;;91.30;;
36923;SDS011;22841;50.252;18.688;2023-03-01T21:36:08;324.20;;;109.63;;
36923;SDS011;22841;50.252;18.688;2023-03-01T21:38:36;313.35;;;112.00;;
36923;SDS011;22841;50.252;18.688;2023-03-01T21:41:08;307.08;;;110.78;;
36923;SDS011;22841;50.252;18.688;2023-03-01T21:43:39;305.27;;;109.38;;
36923;SDS011;22841;50.252;18.688;2023-03-01T22:15:22;241.93;;;87.28;;
36923;SDS011;22841;50.252;18.688;2023-03-01T22:17:49;256.30;;;95.55;;
36923;SDS011;22841;50.252;18.688;2023-03-01T22:20:15;231.32;;;89.70;;
36923;SDS011;22841;50.252;18.688;2023-03-01T22:22:41;231.68;;;88.25;;
36923;SDS011;22841;50.252;18.688;2023-03-01T22:25:08;221.50;;;82.50;;
36923;SDS011;22841;50.252;18.688;2023-03-01T22:27:35;243.15;;;90.20;;
36923;SDS011;22841;50.252;18.688;2023-03-01T22:30:05;251.40;;;98.30;;
36923;SDS011;22841;50.252;18.688;2023-03-01T22:32:33;244.80;;;100.50;;
36923;SDS011;22841;50.252;18.688;2023-03-01T22:34:59;228.43;;;91.60;;
36923;SDS011;22841;50.252;18.688;2023-03-01T22:37:26;222.35;;;88.03;;
36923;SDS011;22841;50.252;18.688;2023-03-01T22:39:52;218.80;;;87.18;;
36923;SDS011;22841;50.252;18.688;2023-03-01T22:42:18;207.77;;;78.38;;
36923;SDS011;22841;50.252;18.688;2023-03-01T22:44:44;230.23;;;86.25;;
36923;SDS011;22841;50.252;18.688;2023-03-01T22:47:10;215.95;;;84.30;;
36923;SDS011;22841;50.252;18.688;2023-03-01T22:49:36;219.02;;;84.13;;
36923;SDS011;22841;50.252;18.688;2023-03-01T22:52:03;221.90;;;91.60;;
36923;SDS011;22841;50.252;18.688;2023-03-01T22:54:29;231.98;;;90.45;;
36923;SDS011;22841;50.252;18.688;2023-03-01T22:56:55;222.73;;;88.13;;
36923;SDS011;22841;50.252;18.688;2023-03-01T22:59:21;222.55;;;89.00;;
36923;SDS011;22841;50.252;18.688;2023-03-01T23:01:47;220.15;;;86.95;;
36923;SDS011;22841;50.252;18.688;2023-03-01T23:04:14;239.80;;;93.53;;
36923;SDS011;22841;50.252;18.688;2023-03-01T23:06:41;237.32;;;92.28;;
36923;SDS011;22841;50.252;18.688;2023-03-01T23:09:19;225.15;;;89.63;;
36923;SDS011;22841;50.252;18.688;2023-03-01T23:11:58;228.05;;;87.90;;
36923;SDS011;22841;50.252;18.688;2023-03-01T23:14:27;226.38;;;93.68;;
36923;SDS011;22841;50.252;18.688;2023-03-01T23:16:55;227.75;;;89.40;;
36923;SDS011;22841;50.252;18.688;2023-03-01T23:19:21;226.75;;;91.47;;
36923;SDS011;22841;50.252;18.688;2023-03-01T23:21:47;251.07;;;97.30;;
36923;SDS011;22841;50.252;18.688;2023-03-01T23:24:20;302.67;;;111.85;;
36923;SDS011;22841;50.252;18.688;2023-03-01T23:26:48;350.38;;;123.53;;
36923;SDS011;22841;50.252;18.688;2023-03-01T23:29:20;350.05;;;124.05;;
36923;SDS011;22841;50.252;18.688;2023-03-01T23:31:46;375.65;;;130.02;;
36923;SDS011;22841;50.252;18.688;2023-03-01T23:34:13;372.65;;;123.88;;
36923;SDS011;22841;50.252;18.688;2023-03-01T23:36:39;380.13;;;125.35;;
36923;SDS011;22841;50.252;18.688;2023-03-01T23:39:10;364.38;;;123.90;;
36923;SDS011;22841;50.252;18.688;2023-03-01T23:41:37;364.17;;;125.13;;
36923;SDS011;22841;50.252;18.688;2023-03-01T23:44:04;346.70;;;122.90;;
36923;SDS011;22841;50.252;18.688;2023-03-01T23:46:31;382.13;;;126.13;;
36923;SDS011;22841;50.252;18.688;2023-03-01T23:48:59;358.52;;;122.15;;
36923;SDS011;22841;50.252;18.688;2023-03-01T23:51:26;329.85;;;121.53;;